sensor_id;sensor_type;location;lat;lon;timestamp;P1;durP1;ratioP1;P2;durP2;ratioP2
37805;SDS011;25082;50.870;0.022;2022-09-12T00:01:57;39.70;;;26.50;;
37805;SDS011;25082;50.870;0.022;2022-09-12T00:04:23;40.90;;;26.90;;
37805;SDS011;25082;50.870;0.022;2022-09-12T00:06:51;38.30;;;26.70;;
37805;SDS011;25082;50.870;0.022;2022-09-12T00:09:16;33.45;;;23.45;;
37805;SDS011;25082;50.870;0.022;2022-09-12T00:11:43;40.00;;;25.40;;
37805;SDS011;25082;50.870;0.022;2022-09-12T00:14:10;35.17;;;23.08;;
37805;SDS011;25082;50.870;0.022;2022-09-12T00:16:38;39.03;;;25.65;;
37805;SDS011;25082;50.870;0.022;2022-09-12T00:19:05;37.88;;;22.05;;
37805;SDS011;25082;50.870;0.022;2022-09-12T00:21:32;35.63;;;23.58;;
37805;SDS011;25082;50.870;0.022;2022-09-12T00:23:59;33.65;;;23.65;;
37805;SDS011;25082;50.870;0.022;2022-09-12T00:26:25;35.08;;;22.67;;
37805;SDS011;25082;50.870;0.022;2022-09-12T00:28:51;33.20;;;21.05;;
37805;SDS011;25082;50.870;0.022;2022-09-12T00:31:18;30.75;;;20.65;;
37805;SDS011;25082;50.870;0.022;2022-09-12T00:33:48;28.00;;;19.83;;
37805;SDS011;25082;50.870;0.022;2022-09-12T00:36:15;33.22;;;20.88;;
37805;SDS011;25082;50.870;0.022;2022-09-12T00:38:43;32.10;;;20.42;;
37805;SDS011;25082;50.870;0.022;2022-09-12T00:41:12;31.23;;;20.95;;
37805;SDS011;25082;50.870;0.022;2022-09-12T00:43:45;31.25;;;19.27;;
37805;SDS011;25082;50.870;0.022;2022-09-12T00:46:19;28.92;;;18.20;;
37805;SDS011;25082;50.870;0.022;2022-09-12T00:48:51;27.45;;;18.05;;
37805;SDS011;25082;50.870;0.022;2022-09-12T00:51:23;23.77;;;16.73;;
37805;SDS011;25082;50.870;0.022;2022-09-12T00:53:49;25.98;;;16.88;;
37805;SDS011;25082;50.870;0.022;2022-09-12T00:56:17;25.65;;;16.40;;
37805;SDS011;25082;50.870;0.022;2022-09-12T00:58:50;24.63;;;17.13;;
37805;SDS011;25082;50.870;0.022;2022-09-12T01:01:40;26.38;;;17.10;;
37805;SDS011;25082;50.870;0.022;2022-09-12T01:04:08;24.88;;;15.93;;
37805;SDS011;25082;50.870;0.022;2022-09-12T01:06:36;23.35;;;14.93;;
37805;SDS011;25082;50.870;0.022;2022-09-12T01:09:05;22.73;;;15.00;;
37805;SDS011;25082;50.870;0.022;2022-09-12T01:11:35;21.60;;;15.05;;
37805;SDS011;25082;50.870;0.022;2022-09-12T01:14:03;22.02;;;15.23;;
37805;SDS011;25082;50.870;0.022;2022-09-12T01:16:29;18.90;;;13.88;;
37805;SDS011;25082;50.870;0.022;2022-09-12T01:27:45;19.38;;;12.38;;
37805;SDS011;25082;50.870;0.022;2022-09-12T01:39:02;19.50;;;13.27;;
37805;SDS011;25082;50.870;0.022;2022-09-12T01:41:47;16.83;;;11.95;;
37805;SDS011;25082;50.870;0.022;2022-09-12T01:55:09;18.42;;;11.15;;
37805;SDS011;25082;50.870;0.022;2022-09-12T01:57:55;15.38;;;10.63;;
37805;SDS011;25082;50.870;0.022;2022-09-12T02:00:31;17.20;;;10.98;;
37805;SDS011;25082;50.870;0.022;2022-09-12T02:03:08;16.05;;;10.50;;
37805;SDS011;25082;50.870;0.022;2022-09-12T02:05:39;17.90;;;11.02;;
37805;SDS011;25082;50.870;0.022;2022-09-12T02:08:13;14.13;;;10.07;;
37805;SDS011;25082;50.870;0.022;2022-09-12T02:13:19;15.43;;;8.68;;
37805;SDS011;25082;50.870;0.022;2022-09-12T02:15:50;15.10;;;10.07;;
37805;SDS011;25082;50.870;0.022;2022-09-12T02:18:20;13.38;;;9.82;;
37805;SDS011;25082;50.870;0.022;2022-09-12T02:20:51;13.20;;;9.35;;
37805;SDS011;25082;50.870;0.022;2022-09-12T02:23:21;15.75;;;9.23;;
37805;SDS011;25082;50.870;0.022;2022-09-12T02:25:51;14.38;;;9.57;;
37805;SDS011;25082;50.870;0.022;2022-09-12T02:28:33;11.32;;;8.90;;
37805;SDS011;25082;50.870;0.022;2022-09-12T02:36:31;12.05;;;7.95;;
37805;SDS011;25082;50.870;0.022;2022-09-12T02:39:07;11.77;;;8.45;;
37805;SDS011;25082;50.870;0.022;2022-09-12T02:41:33;11.52;;;8.02;;
37805;SDS011;25082;50.870;0.022;2022-09-12T02:43:59;12.95;;;8.20;;
37805;SDS011;25082;50.870;0.022;2022-09-12T02:46:28;10.98;;;7.82;;
37805;SDS011;25082;50.870;0.022;2022-09-12T02:49:05;10.82;;;7.88;;
37805;SDS011;25082;50.870;0.022;2022-09-12T02:51:30;10.02;;;6.80;;
37805;SDS011;25082;50.870;0.022;2022-09-12T02:53:57;10.80;;;7.65;;
37805;SDS011;25082;50.870;0.022;2022-09-12T02:56:25;9.52;;;6.90;;
37805;SDS011;25082;50.870;0.022;2022-09-12T02:58:53;9.95;;;7.55;;
37805;SDS011;25082;50.870;0.022;2022-09-12T03:12:13;11.75;;;7.13;;
37805;SDS011;25082;50.870;0.022;2022-09-12T03:14:54;10.15;;;6.57;;
37805;SDS011;25082;50.870;0.022;2022-09-12T03:17:42;8.70;;;6.55;;
37805;SDS011;25082;50.870;0.022;2022-09-12T03:22:58;10.05;;;6.53;;
37805;SDS011;25082;50.870;0.022;2022-09-12T03:28:00;8.75;;;6.35;;
37805;SDS011;25082;50.870;0.022;2022-09-12T03:30:40;10.00;;;5.97;;
37805;SDS011;25082;50.870;0.022;2022-09-12T03:33:14;7.97;;;5.65;;
37805;SDS011;25082;50.870;0.022;2022-09-12T03:35:41;7.55;;;5.75;;
37805;SDS011;25082;50.870;0.022;2022-09-12T03:38:07;8.00;;;5.93;;
37805;SDS011;25082;50.870;0.022;2022-09-12T03:40:34;10.13;;;5.97;;
37805;SDS011;25082;50.870;0.022;2022-09-12T03:43:00;8.77;;;5.68;;
37805;SDS011;25082;50.870;0.022;2022-09-12T03:45:26;7.85;;;5.15;;
37805;SDS011;25082;50.870;0.022;2022-09-12T03:47:52;8.27;;;5.72;;
37805;SDS011;25082;50.870;0.022;2022-09-12T03:50:17;7.80;;;5.63;;
37805;SDS011;25082;50.870;0.022;2022-09-12T03:52:43;7.03;;;5.45;;
37805;SDS011;25082;50.870;0.022;2022-09-12T03:55:09;8.57;;;4.93;;
37805;SDS011;25082;50.870;0.022;2022-09-12T03:57:35;10.73;;;5.72;;
37805;SDS011;25082;50.870;0.022;2022-09-12T04:00:01;7.45;;;4.72;;
37805;SDS011;25082;50.870;0.022;2022-09-12T04:02:28;8.15;;;5.43;;
37805;SDS011;25082;50.870;0.022;2022-09-12T04:04:54;7.43;;;5.18;;
37805;SDS011;25082;50.870;0.022;2022-09-12T04:07:19;7.40;;;4.70;;
37805;SDS011;25082;50.870;0.022;2022-09-12T04:09:45;7.35;;;4.55;;
37805;SDS011;25082;50.870;0.022;2022-09-12T04:12:11;6.60;;;4.45;;
37805;SDS011;25082;50.870;0.022;2022-09-12T04:14:38;7.07;;;4.90;;
37805;SDS011;25082;50.870;0.022;2022-09-12T04:17:04;5.63;;;4.30;;
37805;SDS011;25082;50.870;0.022;2022-09-12T04:19:30;6.32;;;4.22;;
37805;SDS011;25082;50.870;0.022;2022-09-12T04:21:56;8.32;;;4.68;;
37805;SDS011;25082;50.870;0.022;2022-09-12T04:24:22;5.80;;;3.85;;
37805;SDS011;25082;50.870;0.022;2022-09-12T04:26:48;7.53;;;4.32;;
37805;SDS011;25082;50.870;0.022;2022-09-12T04:29:13;5.35;;;4.00;;
37805;SDS011;25082;50.870;0.022;2022-09-12T04:31:39;6.90;;;4.88;;
37805;SDS011;25082;50.870;0.022;2022-09-12T04:34:06;5.93;;;3.72;;
37805;SDS011;25082;50.870;0.022;2022-09-12T04:36:32;5.45;;;3.63;;
37805;SDS011;25082;50.870;0.022;2022-09-12T04:38:59;6.25;;;4.10;;
37805;SDS011;25082;50.870;0.022;2022-09-12T04:41:30;5.47;;;3.80;;
37805;SDS011;25082;50.870;0.022;2022-09-12T04:44:02;7.00;;;3.97;;
37805;SDS011;25082;50.870;0.022;2022-09-12T04:46:35;5.97;;;3.92;;
37805;SDS011;25082;50.870;0.022;2022-09-12T04:49:03;7.50;;;4.55;;
37805;SDS011;25082;50.870;0.022;2022-09-12T04:51:30;6.53;;;4.00;;
37805;SDS011;25082;50.870;0.022;2022-09-12T04:54:01;6.13;;;4.00;;
37805;SDS011;25082;50.870;0.022;2022-09-12T04:58:56;5.40;;;3.80;;
37805;SDS011;25082;50.870;0.022;2022-09-12T05:01:22;3.85;;;3.10;;
37805;SDS011;25082;50.870;0.022;2022-09-12T05:03:49;4.78;;;3.60;;
37805;SDS011;25082;50.870;0.022;2022-09-12T05:06:16;4.22;;;2.88;;
37805;SDS011;25082;50.870;0.022;2022-09-12T05:08:47;7.10;;;3.60;;
37805;SDS011;25082;50.870;0.022;2022-09-12T05:11:15;5.60;;;3.50;;
37805;SDS011;25082;50.870;0.022;2022-09-12T05:13:43;5.38;;;3.63;;
37805;SDS011;25082;50.870;0.022;2022-09-12T05:16:10;5.22;;;3.55;;
37805;SDS011;25082;50.870;0.022;2022-09-12T05:18:37;5.38;;;3.50;;
37805;SDS011;25082;50.870;0.022;2022-09-12T05:21:04;5.13;;;3.70;;
37805;SDS011;25082;50.870;0.022;2022-09-12T05:23:32;5.88;;;3.25;;
37805;SDS011;25082;50.870;0.022;2022-09-12T05:25:58;3.92;;;2.90;;
37805;SDS011;25082;50.870;0.022;2022-09-12T05:28:27;4.57;;;3.47;;
37805;SDS011;25082;50.870;0.022;2022-09-12T05:31:04;5.10;;;3.22;;
37805;SDS011;25082;50.870;0.022;2022-09-12T05:33:33;5.25;;;2.97;;
37805;SDS011;25082;50.870;0.022;2022-09-12T05:36:00;5.90;;;3.65;;
37805;SDS011;25082;50.870;0.022;2022-09-12T05:38:27;6.18;;;3.33;;
37805;SDS011;25082;50.870;0.022;2022-09-12T05:40:53;4.32;;;3.05;;
37805;SDS011;25082;50.870;0.022;2022-09-12T05:43:36;4.00;;;3.03;;
37805;SDS011;25082;50.870;0.022;2022-09-12T05:46:07;4.65;;;3.65;;
37805;SDS011;25082;50.870;0.022;2022-09-12T05:48:35;4.47;;;3.45;;
37805;SDS011;25082;50.870;0.022;2022-09-12T05:51:04;5.35;;;3.03;;
37805;SDS011;25082;50.870;0.022;2022-09-12T05:53:33;4.72;;;3.30;;
37805;SDS011;25082;50.870;0.022;2022-09-12T05:56:13;3.88;;;2.92;;
37805;SDS011;25082;50.870;0.022;2022-09-12T05:58:44;4.72;;;3.05;;
37805;SDS011;25082;50.870;0.022;2022-09-12T06:01:12;5.28;;;3.00;;
37805;SDS011;25082;50.870;0.022;2022-09-12T06:03:43;4.35;;;2.90;;
37805;SDS011;25082;50.870;0.022;2022-09-12T06:06:10;6.85;;;3.40;;
37805;SDS011;25082;50.870;0.022;2022-09-12T06:08:38;4.30;;;2.85;;
37805;SDS011;25082;50.870;0.022;2022-09-12T06:11:09;4.15;;;2.92;;
37805;SDS011;25082;50.870;0.022;2022-09-12T06:13:37;4.95;;;2.90;;
37805;SDS011;25082;50.870;0.022;2022-09-12T06:16:07;3.85;;;3.20;;
37805;SDS011;25082;50.870;0.022;2022-09-12T06:18:36;4.03;;;2.75;;
37805;SDS011;25082;50.870;0.022;2022-09-12T06:21:06;5.70;;;3.22;;
37805;SDS011;25082;50.870;0.022;2022-09-12T06:23:37;4.25;;;2.78;;
37805;SDS011;25082;50.870;0.022;2022-09-12T06:26:04;3.60;;;2.80;;
37805;SDS011;25082;50.870;0.022;2022-09-12T06:28:31;3.90;;;2.88;;
37805;SDS011;25082;50.870;0.022;2022-09-12T06:31:01;4.13;;;2.90;;
37805;SDS011;25082;50.870;0.022;2022-09-12T06:33:29;4.93;;;3.27;;
37805;SDS011;25082;50.870;0.022;2022-09-12T06:36:01;3.85;;;2.80;;
37805;SDS011;25082;50.870;0.022;2022-09-12T06:38:31;4.35;;;2.83;;
37805;SDS011;25082;50.870;0.022;2022-09-12T06:40:57;5.22;;;2.88;;
37805;SDS011;25082;50.870;0.022;2022-09-12T06:43:24;4.78;;;3.00;;
37805;SDS011;25082;50.870;0.022;2022-09-12T06:45:51;4.38;;;3.00;;
37805;SDS011;25082;50.870;0.022;2022-09-12T06:48:17;4.35;;;2.92;;
37805;SDS011;25082;50.870;0.022;2022-09-12T06:50:42;4.07;;;3.22;;
37805;SDS011;25082;50.870;0.022;2022-09-12T06:53:18;4.50;;;2.83;;
37805;SDS011;25082;50.870;0.022;2022-09-12T06:55:44;5.38;;;3.33;;
37805;SDS011;25082;50.870;0.022;2022-09-12T06:58:10;3.40;;;2.80;;
37805;SDS011;25082;50.870;0.022;2022-09-12T07:00:36;4.78;;;2.92;;
37805;SDS011;25082;50.870;0.022;2022-09-12T07:03:01;4.90;;;2.78;;
37805;SDS011;25082;50.870;0.022;2022-09-12T07:05:27;5.05;;;3.30;;
37805;SDS011;25082;50.870;0.022;2022-09-12T07:07:53;3.80;;;3.15;;
37805;SDS011;25082;50.870;0.022;2022-09-12T07:10:18;5.57;;;3.47;;
37805;SDS011;25082;50.870;0.022;2022-09-12T07:12:45;4.50;;;2.58;;
37805;SDS011;25082;50.870;0.022;2022-09-12T07:15:11;5.05;;;3.03;;
37805;SDS011;25082;50.870;0.022;2022-09-12T07:17:37;4.70;;;2.85;;
37805;SDS011;25082;50.870;0.022;2022-09-12T07:20:03;3.92;;;2.92;;
37805;SDS011;25082;50.870;0.022;2022-09-12T07:22:29;4.50;;;2.92;;
37805;SDS011;25082;50.870;0.022;2022-09-12T07:24:55;3.38;;;2.60;;
37805;SDS011;25082;50.870;0.022;2022-09-12T07:27:21;3.60;;;2.28;;
37805;SDS011;25082;50.870;0.022;2022-09-12T07:29:47;4.03;;;2.83;;
37805;SDS011;25082;50.870;0.022;2022-09-12T07:32:13;4.10;;;2.92;;
37805;SDS011;25082;50.870;0.022;2022-09-12T07:34:38;3.47;;;2.47;;
37805;SDS011;25082;50.870;0.022;2022-09-12T07:37:04;6.75;;;2.83;;
37805;SDS011;25082;50.870;0.022;2022-09-12T07:39:30;4.00;;;2.85;;
37805;SDS011;25082;50.870;0.022;2022-09-12T07:41:56;5.88;;;2.50;;
37805;SDS011;25082;50.870;0.022;2022-09-12T07:44:22;5.03;;;2.95;;
37805;SDS011;25082;50.870;0.022;2022-09-12T07:46:49;4.55;;;2.60;;
37805;SDS011;25082;50.870;0.022;2022-09-12T07:49:14;5.05;;;2.70;;
37805;SDS011;25082;50.870;0.022;2022-09-12T07:51:40;4.72;;;2.67;;
37805;SDS011;25082;50.870;0.022;2022-09-12T07:54:06;3.90;;;2.53;;
37805;SDS011;25082;50.870;0.022;2022-09-12T07:56:33;4.75;;;2.90;;
37805;SDS011;25082;50.870;0.022;2022-09-12T07:58:59;3.33;;;2.78;;
37805;SDS011;25082;50.870;0.022;2022-09-12T08:01:25;4.15;;;2.40;;
37805;SDS011;25082;50.870;0.022;2022-09-12T08:03:57;3.85;;;2.22;;
37805;SDS011;25082;50.870;0.022;2022-09-12T08:06:24;4.63;;;2.83;;
37805;SDS011;25082;50.870;0.022;2022-09-12T08:08:53;5.13;;;2.90;;
37805;SDS011;25082;50.870;0.022;2022-09-12T08:11:20;2.58;;;2.28;;
37805;SDS011;25082;50.870;0.022;2022-09-12T08:13:47;4.40;;;2.63;;
37805;SDS011;25082;50.870;0.022;2022-09-12T08:16:14;3.22;;;2.20;;
37805;SDS011;25082;50.870;0.022;2022-09-12T08:18:42;5.65;;;2.45;;
37805;SDS011;25082;50.870;0.022;2022-09-12T08:21:26;6.05;;;2.80;;
37805;SDS011;25082;50.870;0.022;2022-09-12T08:23:55;6.72;;;3.05;;
37805;SDS011;25082;50.870;0.022;2022-09-12T08:26:22;3.60;;;2.33;;
37805;SDS011;25082;50.870;0.022;2022-09-12T08:28:48;4.03;;;2.35;;
37805;SDS011;25082;50.870;0.022;2022-09-12T08:31:16;4.38;;;2.67;;
37805;SDS011;25082;50.870;0.022;2022-09-12T08:33:43;4.22;;;2.40;;
37805;SDS011;25082;50.870;0.022;2022-09-12T08:36:13;5.40;;;2.40;;
37805;SDS011;25082;50.870;0.022;2022-09-12T08:38:41;3.47;;;2.03;;
37805;SDS011;25082;50.870;0.022;2022-09-12T08:46:17;3.03;;;2.28;;
37805;SDS011;25082;50.870;0.022;2022-09-12T08:48:56;3.70;;;2.45;;
37805;SDS011;25082;50.870;0.022;2022-09-12T08:51:24;2.88;;;2.10;;
37805;SDS011;25082;50.870;0.022;2022-09-12T08:53:51;3.92;;;2.50;;
37805;SDS011;25082;50.870;0.022;2022-09-12T08:56:20;2.83;;;2.20;;
37805;SDS011;25082;50.870;0.022;2022-09-12T08:58:46;3.55;;;2.35;;
37805;SDS011;25082;50.870;0.022;2022-09-12T09:18:01;3.80;;;2.10;;
37805;SDS011;25082;50.870;0.022;2022-09-12T09:20:45;2.85;;;2.10;;
37805;SDS011;25082;50.870;0.022;2022-09-12T09:23:28;4.70;;;2.70;;
37805;SDS011;25082;50.870;0.022;2022-09-12T09:26:12;5.32;;;2.05;;
37805;SDS011;25082;50.870;0.022;2022-09-12T09:31:17;9.93;;;2.67;;
37805;SDS011;25082;50.870;0.022;2022-09-12T09:33:48;4.30;;;2.20;;
37805;SDS011;25082;50.870;0.022;2022-09-12T09:39:00;4.53;;;2.33;;
37805;SDS011;25082;50.870;0.022;2022-09-12T09:44:13;4.10;;;2.05;;
37805;SDS011;25082;50.870;0.022;2022-09-12T09:46:38;4.57;;;2.38;;
37805;SDS011;25082;50.870;0.022;2022-09-12T09:49:04;3.60;;;1.98;;
37805;SDS011;25082;50.870;0.022;2022-09-12T09:51:35;4.63;;;2.10;;
37805;SDS011;25082;50.870;0.022;2022-09-12T09:56:58;3.70;;;2.20;;
37805;SDS011;25082;50.870;0.022;2022-09-12T09:59:28;5.95;;;2.50;;
37805;SDS011;25082;50.870;0.022;2022-09-12T10:01:59;5.03;;;2.45;;
37805;SDS011;25082;50.870;0.022;2022-09-12T10:04:40;3.70;;;2.10;;
37805;SDS011;25082;50.870;0.022;2022-09-12T10:07:19;4.63;;;2.22;;
37805;SDS011;25082;50.870;0.022;2022-09-12T10:12:41;3.50;;;2.05;;
37805;SDS011;25082;50.870;0.022;2022-09-12T10:15:23;3.60;;;2.38;;
37805;SDS011;25082;50.870;0.022;2022-09-12T10:17:50;2.40;;;1.77;;
37805;SDS011;25082;50.870;0.022;2022-09-12T10:20:34;2.92;;;2.08;;
37805;SDS011;25082;50.870;0.022;2022-09-12T10:23:50;4.50;;;2.10;;
37805;SDS011;25082;50.870;0.022;2022-09-12T10:26:02;3.45;;;2.20;;
37805;SDS011;25082;50.870;0.022;2022-09-12T10:29:13;4.63;;;2.17;;
37805;SDS011;25082;50.870;0.022;2022-09-12T10:31:45;4.18;;;2.15;;
37805;SDS011;25082;50.870;0.022;2022-09-12T10:34:35;3.90;;;2.22;;
37805;SDS011;25082;50.870;0.022;2022-09-12T10:37:06;3.47;;;2.15;;
37805;SDS011;25082;50.870;0.022;2022-09-12T10:39:35;5.28;;;2.35;;
37805;SDS011;25082;50.870;0.022;2022-09-12T10:42:02;3.63;;;1.85;;
37805;SDS011;25082;50.870;0.022;2022-09-12T10:44:30;4.15;;;1.63;;
37805;SDS011;25082;50.870;0.022;2022-09-12T10:46:59;2.00;;;1.80;;
37805;SDS011;25082;50.870;0.022;2022-09-12T10:49:43;3.75;;;1.65;;
37805;SDS011;25082;50.870;0.022;2022-09-12T10:52:42;6.07;;;2.10;;
37805;SDS011;25082;50.870;0.022;2022-09-12T10:55:00;4.03;;;2.25;;
37805;SDS011;25082;50.870;0.022;2022-09-12T11:00:07;3.83;;;2.08;;
37805;SDS011;25082;50.870;0.022;2022-09-12T11:08:07;2.95;;;2.20;;
37805;SDS011;25082;50.870;0.022;2022-09-12T11:29:49;3.15;;;2.15;;
37805;SDS011;25082;50.870;0.022;2022-09-12T11:43:21;3.33;;;2.05;;
37805;SDS011;25082;50.870;0.022;2022-09-12T11:45:54;3.63;;;2.10;;
37805;SDS011;25082;50.870;0.022;2022-09-12T11:54:08;2.05;;;1.73;;
37805;SDS011;25082;50.870;0.022;2022-09-12T11:56:52;2.55;;;1.80;;
37805;SDS011;25082;50.870;0.022;2022-09-12T11:59:34;2.42;;;1.70;;
37805;SDS011;25082;50.870;0.022;2022-09-12T12:02:27;3.20;;;1.92;;
37805;SDS011;25082;50.870;0.022;2022-09-12T12:07:54;2.80;;;2.10;;
37805;SDS011;25082;50.870;0.022;2022-09-12T12:10:30;4.25;;;2.28;;
37805;SDS011;25082;50.870;0.022;2022-09-12T12:13:51;2.25;;;2.00;;
37805;SDS011;25082;50.870;0.022;2022-09-12T12:15:57;4.90;;;1.95;;
37805;SDS011;25082;50.870;0.022;2022-09-12T12:18:30;2.72;;;1.90;;
37805;SDS011;25082;50.870;0.022;2022-09-12T12:21:41;2.88;;;1.55;;
37805;SDS011;25082;50.870;0.022;2022-09-12T12:29:03;2.92;;;1.60;;
37805;SDS011;25082;50.870;0.022;2022-09-12T12:34:27;3.67;;;1.77;;
37805;SDS011;25082;50.870;0.022;2022-09-12T12:36:54;1.83;;;1.48;;
37805;SDS011;25082;50.870;0.022;2022-09-12T12:41:56;2.22;;;1.55;;
37805;SDS011;25082;50.870;0.022;2022-09-12T12:47:20;3.00;;;1.90;;
37805;SDS011;25082;50.870;0.022;2022-09-12T12:52:48;3.72;;;2.08;;
37805;SDS011;25082;50.870;0.022;2022-09-12T12:55:19;2.50;;;1.80;;
37805;SDS011;25082;50.870;0.022;2022-09-12T12:57:55;2.38;;;1.73;;
37805;SDS011;25082;50.870;0.022;2022-09-12T13:02:49;1.92;;;1.48;;
37805;SDS011;25082;50.870;0.022;2022-09-12T13:05:22;2.17;;;1.92;;
37805;SDS011;25082;50.870;0.022;2022-09-12T13:08:02;2.40;;;1.80;;
37805;SDS011;25082;50.870;0.022;2022-09-12T13:10:46;1.95;;;1.75;;
37805;SDS011;25082;50.870;0.022;2022-09-12T13:13:22;3.40;;;1.90;;
37805;SDS011;25082;50.870;0.022;2022-09-12T13:16:10;3.05;;;1.92;;
37805;SDS011;25082;50.870;0.022;2022-09-12T13:18:52;3.30;;;1.88;;
37805;SDS011;25082;50.870;0.022;2022-09-12T13:21:19;1.95;;;1.65;;
37805;SDS011;25082;50.870;0.022;2022-09-12T13:24:31;2.20;;;1.50;;
37805;SDS011;25082;50.870;0.022;2022-09-12T13:26:41;3.30;;;1.38;;
37805;SDS011;25082;50.870;0.022;2022-09-12T13:29:10;1.90;;;1.58;;
37805;SDS011;25082;50.870;0.022;2022-09-12T13:31:39;1.95;;;1.48;;
37805;SDS011;25082;50.870;0.022;2022-09-12T13:34:06;2.40;;;1.73;;
37805;SDS011;25082;50.870;0.022;2022-09-12T13:39:48;1.92;;;1.60;;
37805;SDS011;25082;50.870;0.022;2022-09-12T13:47:51;1.73;;;1.33;;
37805;SDS011;25082;50.870;0.022;2022-09-12T13:50:24;2.60;;;1.77;;
37805;SDS011;25082;50.870;0.022;2022-09-12T13:52:54;1.55;;;1.40;;
37805;SDS011;25082;50.870;0.022;2022-09-12T13:55:29;1.58;;;1.48;;
37805;SDS011;25082;50.870;0.022;2022-09-12T13:58:01;1.80;;;1.55;;
37805;SDS011;25082;50.870;0.022;2022-09-12T14:00:27;1.30;;;1.20;;
37805;SDS011;25082;50.870;0.022;2022-09-12T14:02:55;2.35;;;1.92;;
37805;SDS011;25082;50.870;0.022;2022-09-12T14:05:40;2.28;;;1.73;;
37805;SDS011;25082;50.870;0.022;2022-09-12T14:08:10;2.35;;;1.45;;
37805;SDS011;25082;50.870;0.022;2022-09-12T14:10:41;2.22;;;1.52;;
37805;SDS011;25082;50.870;0.022;2022-09-12T14:13:10;1.88;;;1.50;;
37805;SDS011;25082;50.870;0.022;2022-09-12T14:15:46;3.60;;;1.55;;
37805;SDS011;25082;50.870;0.022;2022-09-12T14:18:46;1.85;;;1.50;;
37805;SDS011;25082;50.870;0.022;2022-09-12T14:21:55;2.00;;;1.65;;
37805;SDS011;25082;50.870;0.022;2022-09-12T14:24:01;2.08;;;1.60;;
37805;SDS011;25082;50.870;0.022;2022-09-12T14:26:29;1.73;;;1.30;;
37805;SDS011;25082;50.870;0.022;2022-09-12T14:28:59;1.55;;;1.33;;
37805;SDS011;25082;50.870;0.022;2022-09-12T14:31:29;2.13;;;1.17;;
37805;SDS011;25082;50.870;0.022;2022-09-12T14:34:14;2.28;;;1.75;;
37805;SDS011;25082;50.870;0.022;2022-09-12T14:36:43;2.05;;;1.45;;
37805;SDS011;25082;50.870;0.022;2022-09-12T14:41:46;1.88;;;1.55;;
37805;SDS011;25082;50.870;0.022;2022-09-12T14:44:16;1.50;;;1.17;;
37805;SDS011;25082;50.870;0.022;2022-09-12T14:46:48;1.63;;;1.42;;
37805;SDS011;25082;50.870;0.022;2022-09-12T14:52:00;1.90;;;1.45;;
37805;SDS011;25082;50.870;0.022;2022-09-12T14:57:02;1.83;;;1.42;;
37805;SDS011;25082;50.870;0.022;2022-09-12T14:59:51;2.38;;;1.60;;
37805;SDS011;25082;50.870;0.022;2022-09-12T15:04:46;1.30;;;1.17;;
37805;SDS011;25082;50.870;0.022;2022-09-12T15:07:35;1.50;;;1.33;;
37805;SDS011;25082;50.870;0.022;2022-09-12T15:10:15;1.90;;;1.58;;
37805;SDS011;25082;50.870;0.022;2022-09-12T15:12:49;1.33;;;1.20;;
37805;SDS011;25082;50.870;0.022;2022-09-12T15:15:39;1.73;;;1.63;;
37805;SDS011;25082;50.870;0.022;2022-09-12T15:18:07;3.53;;;1.38;;
37805;SDS011;25082;50.870;0.022;2022-09-12T15:20:34;1.80;;;1.40;;
37805;SDS011;25082;50.870;0.022;2022-09-12T15:23:01;1.58;;;1.20;;
37805;SDS011;25082;50.870;0.022;2022-09-12T15:25:27;1.45;;;1.25;;
37805;SDS011;25082;50.870;0.022;2022-09-12T15:27:53;1.10;;;0.90;;
37805;SDS011;25082;50.870;0.022;2022-09-12T15:30:20;3.22;;;1.50;;
37805;SDS011;25082;50.870;0.022;2022-09-12T15:32:45;1.15;;;1.05;;
37805;SDS011;25082;50.870;0.022;2022-09-12T15:37:42;1.63;;;1.35;;
37805;SDS011;25082;50.870;0.022;2022-09-12T15:40:08;1.33;;;1.23;;
37805;SDS011;25082;50.870;0.022;2022-09-12T15:42:35;1.10;;;0.90;;
37805;SDS011;25082;50.870;0.022;2022-09-12T15:45:01;1.20;;;1.00;;
37805;SDS011;25082;50.870;0.022;2022-09-12T15:47:35;1.23;;;1.13;;
37805;SDS011;25082;50.870;0.022;2022-09-12T15:50:01;1.80;;;1.40;;
37805;SDS011;25082;50.870;0.022;2022-09-12T15:52:26;1.65;;;1.15;;
37805;SDS011;25082;50.870;0.022;2022-09-12T15:54:52;1.48;;;1.20;;
37805;SDS011;25082;50.870;0.022;2022-09-12T15:57:18;2.05;;;1.30;;
37805;SDS011;25082;50.870;0.022;2022-09-12T15:59:44;2.08;;;1.45;;
37805;SDS011;25082;50.870;0.022;2022-09-12T16:02:10;2.35;;;1.50;;
37805;SDS011;25082;50.870;0.022;2022-09-12T16:04:36;1.98;;;1.65;;
37805;SDS011;25082;50.870;0.022;2022-09-12T16:07:02;1.10;;;1.00;;
37805;SDS011;25082;50.870;0.022;2022-09-12T16:09:28;1.08;;;0.98;;
37805;SDS011;25082;50.870;0.022;2022-09-12T16:11:53;1.63;;;1.30;;
37805;SDS011;25082;50.870;0.022;2022-09-12T16:14:19;1.83;;;1.27;;
37805;SDS011;25082;50.870;0.022;2022-09-12T16:16:50;1.83;;;1.20;;
37805;SDS011;25082;50.870;0.022;2022-09-12T16:19:18;1.20;;;1.10;;
37805;SDS011;25082;50.870;0.022;2022-09-12T16:21:43;1.30;;;1.20;;
37805;SDS011;25082;50.870;0.022;2022-09-12T16:24:09;2.47;;;1.42;;
37805;SDS011;25082;50.870;0.022;2022-09-12T16:26:35;1.35;;;1.25;;
37805;SDS011;25082;50.870;0.022;2022-09-12T16:29:01;1.30;;;1.15;;
37805;SDS011;25082;50.870;0.022;2022-09-12T16:31:27;1.25;;;1.13;;
37805;SDS011;25082;50.870;0.022;2022-09-12T16:33:53;1.15;;;1.02;;
37805;SDS011;25082;50.870;0.022;2022-09-12T16:36:19;1.58;;;1.20;;
37805;SDS011;25082;50.870;0.022;2022-09-12T16:38:47;2.47;;;1.23;;
37805;SDS011;25082;50.870;0.022;2022-09-12T16:41:18;1.77;;;1.20;;
37805;SDS011;25082;50.870;0.022;2022-09-12T16:43:45;2.72;;;1.20;;
37805;SDS011;25082;50.870;0.022;2022-09-12T16:46:15;1.27;;;1.00;;
37805;SDS011;25082;50.870;0.022;2022-09-12T16:48:43;1.20;;;1.10;;
37805;SDS011;25082;50.870;0.022;2022-09-12T16:51:11;1.10;;;1.00;;
37805;SDS011;25082;50.870;0.022;2022-09-12T16:53:37;1.10;;;1.00;;
37805;SDS011;25082;50.870;0.022;2022-09-12T16:56:04;1.75;;;1.08;;
37805;SDS011;25082;50.870;0.022;2022-09-12T16:58:33;1.80;;;1.15;;
37805;SDS011;25082;50.870;0.022;2022-09-12T17:01:10;0.80;;;0.80;;
37805;SDS011;25082;50.870;0.022;2022-09-12T17:03:38;2.67;;;1.00;;
37805;SDS011;25082;50.870;0.022;2022-09-12T17:06:05;1.48;;;1.02;;
37805;SDS011;25082;50.870;0.022;2022-09-12T17:08:33;1.77;;;1.33;;
37805;SDS011;25082;50.870;0.022;2022-09-12T17:11:02;1.27;;;1.17;;
37805;SDS011;25082;50.870;0.022;2022-09-12T17:13:33;1.10;;;0.90;;
37805;SDS011;25082;50.870;0.022;2022-09-12T17:15:59;1.88;;;1.33;;
37805;SDS011;25082;50.870;0.022;2022-09-12T17:18:28;1.25;;;1.15;;
37805;SDS011;25082;50.870;0.022;2022-09-12T17:20:54;1.75;;;1.30;;
37805;SDS011;25082;50.870;0.022;2022-09-12T17:23:19;1.88;;;1.20;;
37805;SDS011;25082;50.870;0.022;2022-09-12T17:25:46;1.42;;;1.20;;
37805;SDS011;25082;50.870;0.022;2022-09-12T17:28:12;1.10;;;1.00;;
37805;SDS011;25082;50.870;0.022;2022-09-12T17:30:38;1.50;;;1.05;;
37805;SDS011;25082;50.870;0.022;2022-09-12T17:33:04;1.75;;;1.02;;
37805;SDS011;25082;50.870;0.022;2022-09-12T17:35:32;1.20;;;1.10;;
37805;SDS011;25082;50.870;0.022;2022-09-12T17:37:59;0.98;;;0.90;;
37805;SDS011;25082;50.870;0.022;2022-09-12T17:40:25;1.45;;;1.17;;
37805;SDS011;25082;50.870;0.022;2022-09-12T17:42:51;1.45;;;0.98;;
37805;SDS011;25082;50.870;0.022;2022-09-12T17:45:17;1.45;;;1.00;;
37805;SDS011;25082;50.870;0.022;2022-09-12T17:47:42;1.10;;;1.00;;
37805;SDS011;25082;50.870;0.022;2022-09-12T17:50:08;1.30;;;1.20;;
37805;SDS011;25082;50.870;0.022;2022-09-12T17:52:34;1.40;;;1.20;;
37805;SDS011;25082;50.870;0.022;2022-09-12T17:55:01;1.15;;;0.93;;
37805;SDS011;25082;50.870;0.022;2022-09-12T17:57:27;1.38;;;1.00;;
37805;SDS011;25082;50.870;0.022;2022-09-12T17:59:53;0.80;;;0.80;;